Time;durP1;ratioP1;P1;durP2;ratioP2;P2;SDS_P1;SDS_P2;PMS_P1;PMS_P2;Temp;Humidity;BMP_temperature;BMP_pressure;BME280_temperature;BME280_humidity;BME280_pressure;Samples;Min_cycle;Max_cycle;Signal;HPM_P1;HPM_P2
2021/05/27 00:02:13;;;;;;;;;;;10.90;84.50;;;;;;5069509;28;19916;-67
2021/05/27 00:04:39;;;;;;;;;;;10.90;84.60;;;;;;5070362;28;19916;-65
2021/05/27 00:07:05;;;;;;;;;;;10.90;84.60;;;;;;5071887;28;20361;-66
2021/05/27 00:09:30;;;;;;;;;;;10.90;84.80;;;;;;5071081;28;19920;-66
2021/05/27 00:11:56;;;;;;;;;;;10.90;85.00;;;;;;5055379;28;20471;-65
2021/05/27 00:14:21;;;;;;;;;;;10.90;85.00;;;;;;5050968;28;20342;-66
2021/05/27 00:16:47;;;;;;;;;;;10.90;85.10;;;;;;5050947;28;19917;-66
2021/05/27 00:19:13;;;;;;;;;;;10.80;85.20;;;;;;5050583;28;19917;-72
2021/05/27 00:21:38;;;;;;;;;;;10.80;85.30;;;;;;5056382;28;19929;-65
2021/05/27 00:24:04;;;;;;;;;;;10.80;85.30;;;;;;5051540;28;19939;-65
2021/05/27 00:26:30;;;;;;;;;;;10.80;85.40;;;;;;5051840;28;19979;-67
2021/05/27 00:28:57;;;;;;;;;;;10.80;85.70;;;;;;5034655;28;19923;-66
2021/05/27 00:31:22;;;;;;;;;;;10.80;85.70;;;;;;5063681;28;20377;-68
2021/05/27 00:33:48;;;;;;;;;;;10.80;85.80;;;;;;5072783;28;19924;-74
2021/05/27 00:36:14;;;;;;;;;;;10.80;85.90;;;;;;5056399;28;20384;-65
2021/05/27 00:38:39;;;;;;;;;;;10.70;86.10;;;;;;5072682;28;19923;-66
2021/05/27 00:41:05;;;;;;;;;;;10.70;86.10;;;;;;5065043;28;19925;-67
2021/05/27 00:43:30;;;;;;;;;;;10.70;86.30;;;;;;5053420;28;19917;-69
2021/05/27 00:45:56;;;;;;;;;;;10.70;86.20;;;;;;5054935;28;19979;-66
2021/05/27 00:51:06;;;;;;;;;;;10.60;86.80;;;;;;5056106;28;19921;-66
2021/05/27 00:53:32;;;;;;;;;;;10.60;86.90;;;;;;5032664;28;19935;-65
2021/05/27 00:55:58;;;;;;;;;;;10.60;87.10;;;;;;5032351;28;19996;-68
2021/05/27 00:58:24;;;;;;;;;;;10.60;87.10;;;;;;5033201;28;19960;-66
2021/05/27 01:00:50;;;;;;;;;;;10.60;87.10;;;;;;5039052;28;19920;-71
2021/05/27 01:03:16;;;;;;;;;;;10.60;87.20;;;;;;5051227;28;19920;-66
2021/05/27 01:05:42;;;;;;;;;;;10.60;87.20;;;;;;5053759;28;19917;-67
2021/05/27 01:08:08;;;;;;;;;;;10.60;87.50;;;;;;5053048;28;19932;-67
2021/05/27 01:10:34;;;;;;;;;;;10.50;87.60;;;;;;5051683;28;19927;-67
2021/05/27 01:13:01;;;;;;;;;;;10.50;87.60;;;;;;5051027;28;20007;-66
2021/05/27 01:15:30;;;;;;;;;;;10.50;87.80;;;;;;5050309;28;19917;-66
2021/05/27 01:18:01;;;;;;;;;;;10.50;88.10;;;;;;5050642;28;19966;-66
2021/05/27 01:20:27;;;;;;;;;;;10.50;88.10;;;;;;5046201;28;19921;-67
2021/05/27 01:22:53;;;;;;;;;;;10.50;88.10;;;;;;5030162;28;20340;-65
2021/05/27 01:25:19;;;;;;;;;;;10.50;88.20;;;;;;5030439;28;20274;-65
2021/05/27 01:27:45;;;;;;;;;;;10.50;88.20;;;;;;5030258;28;20000;-66
2021/05/27 01:30:12;;;;;;;;;;;10.50;88.30;;;;;;5031277;28;19918;-67
2021/05/27 01:32:39;;;;;;;;;;;10.40;88.50;;;;;;5017138;28;19927;-69
2021/05/27 01:35:06;;;;;;;;;;;10.40;88.70;;;;;;5050190;28;19917;-65
2021/05/27 01:37:32;;;;;;;;;;;10.40;88.80;;;;;;5069525;28;19970;-66
2021/05/27 01:39:57;;;;;;;;;;;10.40;88.70;;;;;;5052882;28;20336;-66
2021/05/27 01:42:25;;;;;;;;;;;10.40;88.80;;;;;;5050412;28;20353;-66
2021/05/27 01:44:50;;;;;;;;;;;10.30;89.50;;;;;;5049327;28;19917;-65
2021/05/27 01:47:16;;;;;;;;;;;10.30;89.10;;;;;;5033787;28;19917;-66
2021/05/27 01:49:42;;;;;;;;;;;10.30;89.30;;;;;;5050055;28;20361;-66
2021/05/27 01:52:08;;;;;;;;;;;10.30;89.40;;;;;;5068204;28;20292;-66
2021/05/27 01:54:34;;;;;;;;;;;10.30;89.30;;;;;;5069357;28;19917;-68
2021/05/27 01:57:00;;;;;;;;;;;10.30;89.30;;;;;;5070157;28;20011;-68
2021/05/27 01:59:27;;;;;;;;;;;10.30;89.50;;;;;;5069593;28;19924;-69
2021/05/27 02:01:54;;;;;;;;;;;10.30;89.70;;;;;;5025602;28;19921;-68
2021/05/27 02:04:20;;;;;;;;;;;10.30;89.80;;;;;;5015027;28;19924;-69
2021/05/27 02:06:45;;;;;;;;;;;10.40;89.80;;;;;;5033387;28;19917;-68
2021/05/27 02:09:14;;;;;;;;;;;10.30;89.80;;;;;;5031122;28;19917;-68
2021/05/27 02:11:48;;;;;;;;;;;10.40;90.00;;;;;;5034897;28;19917;-75
2021/05/27 02:14:16;;;;;;;;;;;10.40;89.90;;;;;;5034630;28;20293;-68
2021/05/27 02:16:43;;;;;;;;;;;10.40;89.90;;;;;;5034392;28;19914;-68
2021/05/27 02:19:09;;;;;;;;;;;10.40;89.90;;;;;;5050186;28;20312;-69
2021/05/27 02:21:39;;;;;;;;;;;10.30;90.00;;;;;;5053709;28;19929;-68
2021/05/27 02:24:07;;;;;;;;;;;10.30;89.80;;;;;;5053995;28;19916;-68
2021/05/27 02:26:36;;;;;;;;;;;10.30;90.00;;;;;;5039210;28;19996;-67
2021/05/27 02:29:08;;;;;;;;;;;10.30;90.00;;;;;;5053059;28;20399;-67
2021/05/27 02:31:38;;;;;;;;;;;10.30;90.20;;;;;;5052526;28;19917;-67
2021/05/27 02:34:05;;;;;;;;;;;10.20;90.20;;;;;;5051854;28;19917;-67
2021/05/27 02:36:31;;;;;;;;;;;10.30;90.30;;;;;;5054330;28;19917;-67
2021/05/27 02:38:57;;;;;;;;;;;10.30;90.20;;;;;;5052812;28;20381;-67
2021/05/27 02:41:26;;;;;;;;;;;10.30;90.20;;;;;;5024458;28;19921;-67
2021/05/27 02:43:53;;;;;;;;;;;10.20;90.20;;;;;;5033177;28;19956;-67
2021/05/27 02:46:22;;;;;;;;;;;10.20;90.20;;;;;;5034232;28;20386;-67
2021/05/27 02:48:52;;;;;;;;;;;10.20;90.40;;;;;;5034268;28;20399;-70
2021/05/27 02:51:18;;;;;;;;;;;10.30;90.30;;;;;;5043555;28;20288;-69
2021/05/27 02:53:44;;;;;;;;;;;10.20;90.20;;;;;;5052004;28;19917;-70
2021/05/27 02:56:12;;;;;;;;;;;10.20;90.20;;;;;;5036294;28;20360;-69
2021/05/27 02:58:41;;;;;;;;;;;10.20;90.30;;;;;;5069156;28;19953;-70
2021/05/27 03:01:08;;;;;;;;;;;10.10;90.30;;;;;;5053549;28;19921;-70
2021/05/27 03:03:37;;;;;;;;;;;10.10;90.30;;;;;;5068348;28;19917;-70
2021/05/27 03:06:03;;;;;;;;;;;10.10;90.30;;;;;;5053967;28;19924;-71
2021/05/27 03:08:31;;;;;;;;;;;10.10;90.60;;;;;;5069369;28;19917;-71
2021/05/27 03:10:57;;;;;;;;;;;10.10;90.40;;;;;;5053495;28;19921;-70
2021/05/27 03:13:24;;;;;;;;;;;10.10;90.40;;;;;;5068729;28;19932;-70
2021/05/27 03:15:50;;;;;;;;;;;10.10;90.40;;;;;;5068688;28;20339;-73
2021/05/27 03:18:24;;;;;;;;;;;10.10;90.30;;;;;;5052617;28;20000;-70
2021/05/27 03:20:51;;;;;;;;;;;10.00;90.20;;;;;;5068590;28;20373;-69
2021/05/27 03:23:17;;;;;;;;;;;10.00;90.30;;;;;;5052990;28;19913;-71
2021/05/27 03:25:43;;;;;;;;;;;10.00;90.30;;;;;;5068840;28;19960;-70
2021/05/27 03:28:10;;;;;;;;;;;9.90;90.40;;;;;;5035305;28;19921;-70
2021/05/27 03:30:37;;;;;;;;;;;9.90;90.40;;;;;;5070021;28;19924;-71
2021/05/27 03:33:07;;;;;;;;;;;9.90;90.60;;;;;;5069952;28;20327;-70
2021/05/27 03:35:33;;;;;;;;;;;9.90;90.30;;;;;;5052533;28;19979;-70
2021/05/27 03:38:01;;;;;;;;;;;9.90;90.30;;;;;;5052192;28;19924;-70
2021/05/27 03:40:28;;;;;;;;;;;9.80;90.40;;;;;;5051337;28;19920;-70
2021/05/27 03:42:55;;;;;;;;;;;9.80;90.30;;;;;;5052896;28;20289;-69
2021/05/27 03:45:22;;;;;;;;;;;9.80;90.30;;;;;;5052801;28;19921;-70
2021/05/27 03:48:12;;;;;;;;;;;9.70;90.30;;;;;;5052408;28;19923;-70
2021/05/27 03:50:38;;;;;;;;;;;9.70;90.40;;;;;;5029365;28;19952;-68
2021/05/27 03:53:09;;;;;;;;;;;9.70;90.50;;;;;;5032335;28;19970;-71
2021/05/27 03:55:36;;;;;;;;;;;9.70;90.40;;;;;;5032327;28;19924;-70
2021/05/27 04:00:41;;;;;;;;;;;9.70;90.50;;;;;;5015178;28;19949;-70
2021/05/27 04:00:51;;;;;;;;;;;9.70;90.60;;;;;;5030706;28;19921;-70
2021/05/27 04:07:08;;;;;;;;;;;9.70;90.60;;;;;;5016591;28;20435;-70
2021/05/27 04:09:03;;;;;;;;;;;9.70;90.60;;;;;;5031508;28;20003;-70
2021/05/27 04:11:29;;;;;;;;;;;9.70;90.60;;;;;;5031897;28;19921;-70
2021/05/27 04:13:54;;;;;;;;;;;9.70;90.70;;;;;;5032116;28;19964;-70
2021/05/27 04:16:20;;;;;;;;;;;9.80;90.80;;;;;;5030430;28;20348;-70
2021/05/27 04:18:45;;;;;;;;;;;9.80;90.70;;;;;;5031090;28;20410;-70
2021/05/27 04:21:11;;;;;;;;;;;9.80;90.80;;;;;;5030919;28;19921;-70
2021/05/27 04:23:37;;;;;;;;;;;9.80;90.80;;;;;;5030164;28;19924;-71
2021/05/27 04:26:03;;;;;;;;;;;9.80;90.80;;;;;;5032338;28;19917;-70
2021/05/27 04:28:30;;;;;;;;;;;9.80;90.80;;;;;;5013989;28;19921;-70
2021/05/27 04:31:11;;;;;;;;;;;9.80;90.80;;;;;;5032097;28;19959;-70
2021/05/27 04:33:38;;;;;;;;;;;9.80;90.90;;;;;;5029601;28;19963;-70
2021/05/27 04:36:04;;;;;;;;;;;9.80;91.10;;;;;;5034519;28;19913;-70
2021/05/27 04:38:29;;;;;;;;;;;9.90;91.10;;;;;;5042555;28;19917;-70
2021/05/27 04:40:55;;;;;;;;;;;9.90;91.00;;;;;;5041151;28;20015;-69
2021/05/27 04:43:21;;;;;;;;;;;9.90;91.10;;;;;;5048532;28;20008;-70
2021/05/27 04:45:46;;;;;;;;;;;10.00;91.10;;;;;;5047996;28;20365;-69
2021/05/27 04:48:15;;;;;;;;;;;10.00;91.10;;;;;;5032104;28;20312;-70
2021/05/27 04:50:42;;;;;;;;;;;10.10;91.10;;;;;;5044198;28;19921;-69
2021/05/27 04:53:08;;;;;;;;;;;10.10;91.10;;;;;;5039592;28;19924;-70
2021/05/27 04:55:34;;;;;;;;;;;10.00;91.10;;;;;;5041241;28;20399;-69
2021/05/27 04:58:00;;;;;;;;;;;10.10;91.10;;;;;;5056951;28;20000;-70
2021/05/27 05:00:26;;;;;;;;;;;10.10;91.20;;;;;;5042054;28;20384;-70
2021/05/27 05:02:53;;;;;;;;;;;10.20;91.10;;;;;;5041892;28;19932;-70
2021/05/27 05:05:18;;;;;;;;;;;10.20;91.20;;;;;;5039758;28;19927;-70
2021/05/27 05:07:44;;;;;;;;;;;10.20;91.20;;;;;;5041292;28;19916;-69
2021/05/27 05:10:11;;;;;;;;;;;10.30;91.20;;;;;;5041649;28;20385;-70
2021/05/27 05:12:46;;;;;;;;;;;10.30;91.10;;;;;;5045378;28;20449;-69
2021/05/27 05:15:25;;;;;;;;;;;10.30;91.20;;;;;;5051286;28;19916;-69
2021/05/27 05:17:52;;;;;;;;;;;10.40;91.20;;;;;;5035709;28;19956;-69
2021/05/27 05:20:22;;;;;;;;;;;10.40;91.20;;;;;;5031959;28;20358;-69
2021/05/27 05:22:48;;;;;;;;;;;10.50;91.10;;;;;;5037325;28;19917;-69
2021/05/27 05:25:14;;;;;;;;;;;10.40;91.20;;;;;;5047781;28;19917;-69
2021/05/27 05:27:39;;;;;;;;;;;10.50;91.20;;;;;;5032334;28;20370;-68
2021/05/27 05:30:05;;;;;;;;;;;10.50;91.10;;;;;;5048369;28;20003;-69
2021/05/27 05:32:31;;;;;;;;;;;10.50;91.10;;;;;;5066261;28;20337;-69
2021/05/27 05:34:58;;;;;;;;;;;10.50;91.10;;;;;;5050510;28;19968;-68
2021/05/27 05:37:23;;;;;;;;;;;10.50;91.10;;;;;;5051237;28;19924;-68
2021/05/27 05:39:49;;;;;;;;;;;10.60;91.20;;;;;;5051152;28;19917;-69
2021/05/27 05:42:15;;;;;;;;;;;10.60;91.20;;;;;;5050554;28;19921;-69
2021/05/27 05:44:40;;;;;;;;;;;10.70;91.20;;;;;;5066674;28;19952;-67
2021/05/27 05:47:06;;;;;;;;;;;10.70;91.10;;;;;;5054663;28;20397;-68
2021/05/27 05:49:31;;;;;;;;;;;10.80;91.10;;;;;;5054999;28;19917;-69
2021/05/27 05:51:57;;;;;;;;;;;10.90;91.20;;;;;;5037141;28;19924;-70
2021/05/27 05:54:22;;;;;;;;;;;10.90;91.00;;;;;;5054308;28;20003;-69
2021/05/27 05:56:48;;;;;;;;;;;11.00;91.20;;;;;;5070265;28;20302;-70
2021/05/27 05:59:13;;;;;;;;;;;11.00;91.00;;;;;;5054919;28;20382;-69
2021/05/27 06:01:39;;;;;;;;;;;11.00;90.90;;;;;;5054183;28;20385;-69
2021/05/27 06:04:05;;;;;;;;;;;11.10;91.00;;;;;;5069932;28;19923;-70
2021/05/27 06:06:46;;;;;;;;;;;11.10;91.20;;;;;;5038089;28;19919;-69
2021/05/27 06:09:18;;;;;;;;;;;11.30;91.10;;;;;;5054507;28;19928;-69
2021/05/27 06:11:44;;;;;;;;;;;11.40;91.20;;;;;;5036193;28;20373;-68
2021/05/27 06:14:09;;;;;;;;;;;11.50;91.20;;;;;;5052884;28;20003;-69
2021/05/27 06:16:35;;;;;;;;;;;11.60;91.00;;;;;;5054448;28;19913;-69
2021/05/27 06:19:01;;;;;;;;;;;11.70;91.00;;;;;;5054172;28;20293;-69
2021/05/27 06:22:00;;;;;;;;;;;11.70;90.60;;;;;;5046189;28;19925;-70
2021/05/27 06:24:45;;;;;;;;;;;11.70;90.80;;;;;;5053956;28;20377;-70
2021/05/27 06:27:11;;;;;;;;;;;11.80;90.70;;;;;;5053810;28;19945;-69
2021/05/27 06:29:37;;;;;;;;;;;11.90;90.90;;;;;;5053357;28;19921;-69
2021/05/27 06:32:02;;;;;;;;;;;12.10;91.10;;;;;;5068835;28;19924;-69
2021/05/27 06:34:28;;;;;;;;;;;12.30;91.00;;;;;;5052913;28;20361;-69
2021/05/27 06:36:54;;;;;;;;;;;12.40;90.70;;;;;;5035476;28;19916;-69
2021/05/27 06:39:19;;;;;;;;;;;12.50;90.50;;;;;;5052976;28;19917;-67
2021/05/27 06:41:45;;;;;;;;;;;12.70;90.30;;;;;;5051900;28;20297;-69
2021/05/27 06:44:11;;;;;;;;;;;12.60;90.00;;;;;;5051469;28;19924;-71
2021/05/27 06:46:36;;;;;;;;;;;12.60;89.60;;;;;;5052109;28;19948;-68
2021/05/27 06:49:02;;;;;;;;;;;12.50;88.70;;;;;;5051318;28;19995;-70
2021/05/27 06:51:28;;;;;;;;;;;12.30;89.30;;;;;;5051966;28;19917;-69
2021/05/27 06:53:53;;;;;;;;;;;12.30;89.40;;;;;;5051059;28;19916;-69
2021/05/27 06:56:22;;;;;;;;;;;12.20;89.50;;;;;;5050572;28;19921;-69
2021/05/27 06:58:48;;;;;;;;;;;12.20;89.20;;;;;;5012420;28;19933;-69
2021/05/27 07:01:14;;;;;;;;;;;12.00;89.00;;;;;;5047174;28;20021;-69
2021/05/27 07:03:40;;;;;;;;;;;11.90;89.00;;;;;;5052973;28;19924;-69
2021/05/27 07:06:06;;;;;;;;;;;11.80;89.10;;;;;;5053129;28;19924;-69
2021/05/27 07:08:32;;;;;;;;;;;11.70;89.60;;;;;;5051120;28;19916;-69
2021/05/27 07:10:58;;;;;;;;;;;11.70;89.40;;;;;;5050048;28;19927;-69
2021/05/27 07:13:24;;;;;;;;;;;11.60;89.70;;;;;;5053040;28;19924;-70
2021/05/27 07:15:51;;;;;;;;;;;11.60;89.80;;;;;;5051792;28;19917;-69
2021/05/27 07:18:17;;;;;;;;;;;11.60;89.90;;;;;;5047825;28;19932;-68
2021/05/27 07:20:43;;;;;;;;;;;11.50;90.00;;;;;;5051484;28;19920;-68
2021/05/27 07:23:09;;;;;;;;;;;11.50;90.10;;;;;;5052700;28;19928;-69
2021/05/27 07:25:35;;;;;;;;;;;11.60;90.10;;;;;;5052786;28;19917;-69
2021/05/27 07:28:01;;;;;;;;;;;11.70;90.30;;;;;;5053146;28;19959;-69
2021/05/27 07:30:27;;;;;;;;;;;11.90;90.50;;;;;;5052471;28;20350;-69
2021/05/27 07:32:54;;;;;;;;;;;12.10;90.60;;;;;;5051496;28;19923;-71
2021/05/27 07:35:20;;;;;;;;;;;12.20;90.30;;;;;;5053068;28;20270;-69
2021/05/27 07:37:45;;;;;;;;;;;12.50;90.40;;;;;;5051104;28;19923;-69
2021/05/27 07:40:11;;;;;;;;;;;12.90;90.80;;;;;;5052639;28;20011;-71
2021/05/27 07:42:38;;;;;;;;;;;13.30;90.40;;;;;;5052458;28;19917;-70
2021/05/27 07:45:04;;;;;;;;;;;13.50;90.00;;;;;;5052448;28;19916;-69
2021/05/27 07:47:32;;;;;;;;;;;13.80;90.10;;;;;;5051618;28;20411;-69
2021/05/27 07:50:00;;;;;;;;;;;13.90;88.80;;;;;;5052170;28;19925;-69
2021/05/27 07:52:26;;;;;;;;;;;13.90;87.80;;;;;;5052647;28;19999;-70
2021/05/27 07:54:53;;;;;;;;;;;13.80;86.60;;;;;;5051875;28;19917;-68
2021/05/27 07:57:19;;;;;;;;;;;13.70;86.90;;;;;;5052409;28;19924;-68
2021/05/27 07:59:45;;;;;;;;;;;13.60;86.30;;;;;;5050929;28;20197;-69
2021/05/27 08:02:10;;;;;;;;;;;13.50;86.80;;;;;;5050773;28;19955;-69
2021/05/27 08:04:42;;;;;;;;;;;13.40;86.10;;;;;;5051209;28;21347;-69
2021/05/27 08:07:10;;;;;;;;;;;13.40;86.90;;;;;;5050184;28;19917;-68
2021/05/27 08:09:36;;;;;;;;;;;13.40;87.80;;;;;;5052443;28;19956;-71
2021/05/27 08:12:02;;;;;;;;;;;13.70;88.00;;;;;;5050652;28;19959;-69
2021/05/27 08:14:28;;;;;;;;;;;14.00;88.10;;;;;;5051608;28;19921;-68
2021/05/27 08:16:54;;;;;;;;;;;14.30;87.30;;;;;;5050849;28;19917;-69
2021/05/27 08:19:20;;;;;;;;;;;14.40;86.50;;;;;;5050927;28;20369;-68
2021/05/27 08:21:46;;;;;;;;;;;14.60;86.20;;;;;;5050846;28;19944;-70
2021/05/27 08:24:12;;;;;;;;;;;14.70;85.40;;;;;;5034143;28;19917;-68
2021/05/27 08:26:37;;;;;;;;;;;14.90;85.80;;;;;;5050410;28;20388;-69
2021/05/27 08:29:03;;;;;;;;;;;15.10;84.90;;;;;;5051908;28;19924;-69
2021/05/27 08:31:30;;;;;;;;;;;15.20;83.50;;;;;;5052057;28;19920;-68
2021/05/27 08:33:56;;;;;;;;;;;15.20;84.00;;;;;;5051378;28;20050;-69
2021/05/27 08:36:21;;;;;;;;;;;15.30;83.70;;;;;;5050829;28;20011;-69
2021/05/27 08:38:47;;;;;;;;;;;15.50;83.50;;;;;;5051494;28;19959;-68
2021/05/27 08:41:17;;;;;;;;;;;15.60;84.00;;;;;;5051531;28;20507;-69
2021/05/27 08:43:43;;;;;;;;;;;15.90;82.40;;;;;;5050108;28;20011;-69
2021/05/27 08:46:09;;;;;;;;;;;16.00;81.50;;;;;;5051256;28;19952;-69
2021/05/27 08:48:35;;;;;;;;;;;16.40;83.20;;;;;;5051839;28;19912;-67
2021/05/27 08:51:01;;;;;;;;;;;17.20;84.20;;;;;;5050639;28;19916;-68
2021/05/27 08:53:27;;;;;;;;;;;17.50;80.30;;;;;;5049645;28;19970;-68
2021/05/27 08:55:53;;;;;;;;;;;17.70;78.90;;;;;;5051442;28;19921;-66
2021/05/27 08:58:19;;;;;;;;;;;17.80;78.30;;;;;;5050616;28;19917;-67
2021/05/27 09:00:45;;;;;;;;;;;17.90;76.80;;;;;;5049695;28;19921;-67
2021/05/27 09:03:13;;;;;;;;;;;17.80;75.20;;;;;;5051001;28;20008;-67
2021/05/27 09:05:40;;;;;;;;;;;18.90;81.30;;;;;;5050790;28;20448;-68
2021/05/27 09:08:10;;;;;;;;;;;19.80;76.20;;;;;;5040151;28;19967;-67
2021/05/27 09:10:43;;;;;;;;;;;20.60;75.80;;;;;;5069218;28;19920;-68
2021/05/27 09:13:13;;;;;;;;;;;21.20;71.60;;;;;;5024403;28;19920;-67
2021/05/27 09:15:39;;;;;;;;;;;20.70;66.70;;;;;;5040280;28;19949;-66
2021/05/27 09:18:05;;;;;;;;;;;19.60;65.30;;;;;;5041097;28;19913;-68
2021/05/27 09:20:31;;;;;;;;;;;18.30;65.20;;;;;;5048727;28;19921;-67
2021/05/27 09:23:16;;;;;;;;;;;17.40;66.70;;;;;;5049197;28;19956;-67
2021/05/27 09:25:43;;;;;;;;;;;16.60;67.80;;;;;;5053801;28;20385;-69
2021/05/27 09:28:10;;;;;;;;;;;15.90;69.00;;;;;;5037107;28;19920;-67
2021/05/27 09:30:55;;;;;;;;;;;15.50;70.10;;;;;;5055382;28;19912;-68
2021/05/27 09:33:32;;;;;;;;;;;15.10;70.80;;;;;;5037014;28;20029;-68
2021/05/27 09:36:03;;;;;;;;;;;14.90;71.70;;;;;;5055216;28;20035;-68
2021/05/27 09:38:33;;;;;;;;;;;14.80;72.20;;;;;;5069965;28;20316;-67
2021/05/27 09:40:59;;;;;;;;;;;14.70;72.50;;;;;;5053518;28;19924;-67
2021/05/27 09:43:25;;;;;;;;;;;14.60;72.40;;;;;;5053903;28;19919;-68
2021/05/27 09:46:01;;;;;;;;;;;14.40;72.60;;;;;;5053753;28;20374;-67
2021/05/27 09:48:27;;;;;;;;;;;14.30;73.10;;;;;;5052814;28;19955;-68
2021/05/27 09:50:55;;;;;;;;;;;14.20;73.40;;;;;;5053305;28;19952;-68
2021/05/27 09:53:21;;;;;;;;;;;14.20;74.00;;;;;;5054739;28;20407;-68
2021/05/27 09:55:47;;;;;;;;;;;14.20;74.50;;;;;;5069610;28;20340;-67
2021/05/27 09:58:14;;;;;;;;;;;14.30;74.80;;;;;;5054727;28;19975;-67
2021/05/27 10:00:41;;;;;;;;;;;14.40;75.20;;;;;;5054244;28;19927;-68
2021/05/27 10:03:26;;;;;;;;;;;14.60;75.40;;;;;;5053271;28;19917;-67
2021/05/27 10:05:52;;;;;;;;;;;14.90;75.70;;;;;;5054367;28;19916;-68
2021/05/27 10:08:20;;;;;;;;;;;15.30;75.80;;;;;;5054551;28;20003;-67
2021/05/27 10:10:46;;;;;;;;;;;15.80;76.20;;;;;;5054305;28;19924;-68
2021/05/27 10:13:16;;;;;;;;;;;17.10;76.90;;;;;;5053654;28;19921;-69
2021/05/27 10:15:44;;;;;;;;;;;19.40;78.30;;;;;;5054229;28;19921;-68
2021/05/27 10:18:14;;;;;;;;;;;20.60;74.60;;;;;;5053416;28;20304;-68
2021/05/27 10:20:39;;;;;;;;;;;20.60;71.20;;;;;;5052769;28;19928;-68
2021/05/27 10:23:06;;;;;;;;;;;20.40;68.40;;;;;;5053459;28;19913;-68
2021/05/27 10:25:31;;;;;;;;;;;19.90;66.20;;;;;;5054016;28;19917;-68
2021/05/27 10:28:00;;;;;;;;;;;19.20;65.50;;;;;;5052792;28;20281;-67
2021/05/27 10:30:26;;;;;;;;;;;18.60;64.50;;;;;;5051243;28;20172;-68
2021/05/27 10:32:55;;;;;;;;;;;17.60;63.60;;;;;;5052640;28;20288;-67
2021/05/27 10:35:21;;;;;;;;;;;16.80;65.10;;;;;;5052177;28;20373;-67
2021/05/27 10:37:48;;;;;;;;;;;16.10;66.50;;;;;;5054131;28;19917;-69
2021/05/27 10:40:14;;;;;;;;;;;15.70;67.50;;;;;;5052821;28;19917;-68
2021/05/27 10:42:55;;;;;;;;;;;15.30;68.70;;;;;;5051218;28;19962;-66
2021/05/27 10:45:20;;;;;;;;;;;15.20;69.60;;;;;;5053237;28;19916;-68
2021/05/27 10:48:05;;;;;;;;;;;15.10;70.30;;;;;;5051855;28;19923;-68
2021/05/27 10:50:54;;;;;;;;;;;15.00;71.00;;;;;;5053571;28;19964;-68
2021/05/27 10:53:32;;;;;;;;;;;15.10;71.90;;;;;;5053457;28;20101;-66
2021/05/27 10:55:58;;;;;;;;;;;15.30;72.70;;;;;;5057358;28;19917;-67
2021/05/27 10:58:42;;;;;;;;;;;15.60;72.90;;;;;;5053061;28;19979;-68
2021/05/27 11:01:08;;;;;;;;;;;15.70;72.40;;;;;;5054333;28;19983;-67
2021/05/27 11:03:55;;;;;;;;;;;15.80;72.60;;;;;;5055421;28;20358;-67
2021/05/27 11:06:25;;;;;;;;;;;15.80;72.60;;;;;;5031994;28;19980;-66
2021/05/27 11:11:44;;;;;;;;;;;15.60;72.40;;;;;;5044813;28;19921;-67
2021/05/27 11:14:37;;;;;;;;;;;16.00;74.30;;;;;;5042166;28;19917;-67
2021/05/27 11:22:28;;;;;;;;;;;19.50;72.60;;;;;;5066880;28;19924;-69
2021/05/27 11:25:10;;;;;;;;;;;19.90;69.90;;;;;;5048336;28;20002;-67
2021/05/27 11:27:36;;;;;;;;;;;19.70;67.20;;;;;;5041762;28;19970;-67
2021/05/27 11:30:15;;;;;;;;;;;19.20;66.70;;;;;;5034716;28;20008;-67
2021/05/27 11:32:41;;;;;;;;;;;18.50;66.50;;;;;;5049005;28;19921;-67
2021/05/27 11:35:07;;;;;;;;;;;17.70;65.60;;;;;;5043742;28;19928;-67
2021/05/27 11:37:36;;;;;;;;;;;16.80;66.40;;;;;;5051948;28;19959;-67
2021/05/27 11:40:03;;;;;;;;;;;16.10;68.00;;;;;;5040442;28;19921;-66
2021/05/27 11:42:29;;;;;;;;;;;15.70;69.40;;;;;;5066796;28;20453;-66
2021/05/27 11:45:01;;;;;;;;;;;15.50;70.10;;;;;;5045972;28;19925;-67
2021/05/27 11:47:27;;;;;;;;;;;15.30;71.00;;;;;;5043591;28;19928;-68
2021/05/27 11:49:59;;;;;;;;;;;15.20;71.80;;;;;;5050655;28;19917;-68
2021/05/27 11:52:25;;;;;;;;;;;15.20;72.40;;;;;;5051942;28;19917;-67
2021/05/27 11:54:54;;;;;;;;;;;15.40;73.20;;;;;;5049584;28;20403;-66
2021/05/27 11:57:22;;;;;;;;;;;15.50;73.00;;;;;;5045360;28;19921;-66
2021/05/27 12:00:00;;;;;;;;;;;15.60;72.90;;;;;;5050991;28;19939;-66
2021/05/27 12:02:45;;;;;;;;;;;15.60;73.10;;;;;;5051600;28;19940;-67
2021/05/27 12:05:24;;;;;;;;;;;15.70;73.20;;;;;;5043242;28;20023;-68
2021/05/27 12:08:05;;;;;;;;;;;15.60;72.60;;;;;;5047532;28;19921;-68
2021/05/27 12:10:31;;;;;;;;;;;15.60;72.80;;;;;;5046781;28;20357;-66
2021/05/27 12:12:57;;;;;;;;;;;15.70;73.80;;;;;;5036185;28;19948;-66
2021/05/27 12:15:24;;;;;;;;;;;16.10;74.90;;;;;;5041570;28;19944;-66
2021/05/27 12:17:51;;;;;;;;;;;16.50;75.20;;;;;;5079828;28;19925;-67
2021/05/27 12:20:37;;;;;;;;;;;17.00;74.90;;;;;;5051760;28;19944;-67
2021/05/27 12:23:05;;;;;;;;;;;17.20;73.40;;;;;;5051527;28;19925;-66
2021/05/27 12:25:35;;;;;;;;;;;17.30;72.70;;;;;;5051643;28;19928;-69
2021/05/27 12:28:02;;;;;;;;;;;17.30;72.20;;;;;;5047401;28;20373;-67
2021/05/27 12:30:29;;;;;;;;;;;17.40;72.50;;;;;;5044459;28;20357;-67
2021/05/27 12:32:56;;;;;;;;;;;17.30;71.30;;;;;;5050772;28;20007;-67
2021/05/27 12:35:25;;;;;;;;;;;17.00;70.30;;;;;;5033712;28;19921;-68
2021/05/27 12:37:54;;;;;;;;;;;16.70;70.90;;;;;;5051590;28;19917;-68
2021/05/27 12:40:25;;;;;;;;;;;16.40;71.00;;;;;;5050102;28;19924;-68
2021/05/27 12:42:52;;;;;;;;;;;16.20;71.70;;;;;;5050341;28;20343;-68
2021/05/27 12:45:25;;;;;;;;;;;16.10;71.80;;;;;;5050156;28;19952;-68
2021/05/27 12:48:04;;;;;;;;;;;16.10;72.40;;;;;;5063340;28;19939;-68
2021/05/27 12:50:30;;;;;;;;;;;16.30;73.50;;;;;;5043195;28;19917;-68
2021/05/27 12:52:55;;;;;;;;;;;16.60;73.60;;;;;;5051050;28;19921;-68
2021/05/27 12:55:26;;;;;;;;;;;16.90;73.20;;;;;;5050439;28;19917;-68
2021/05/27 12:57:53;;;;;;;;;;;17.30;73.50;;;;;;5051467;28;19924;-68
2021/05/27 13:00:19;;;;;;;;;;;17.70;73.40;;;;;;5051166;28;19921;-68
2021/05/27 13:02:44;;;;;;;;;;;18.10;72.40;;;;;;5050823;28;19916;-68
2021/05/27 13:05:18;;;;;;;;;;;18.40;72.10;;;;;;5051088;28;20381;-68
2021/05/27 13:08:15;;;;;;;;;;;18.70;71.10;;;;;;5049425;28;19917;-68
2021/05/27 13:10:40;;;;;;;;;;;18.90;71.00;;;;;;5037154;28;19920;-68
2021/05/27 13:13:07;;;;;;;;;;;19.00;69.80;;;;;;5032923;28;19942;-68
2021/05/27 13:15:39;;;;;;;;;;;18.80;68.40;;;;;;5049884;28;19916;-68
2021/05/27 13:18:07;;;;;;;;;;;18.40;67.30;;;;;;5049454;28;19917;-68
2021/05/27 13:20:52;;;;;;;;;;;18.00;67.30;;;;;;5029096;28;19921;-69
2021/05/27 13:23:43;;;;;;;;;;;17.50;67.10;;;;;;5049884;28;20019;-67
2021/05/27 13:26:22;;;;;;;;;;;17.00;67.60;;;;;;5047838;28;19978;-67
2021/05/27 13:29:01;;;;;;;;;;;16.70;68.60;;;;;;5051048;28;19966;-66
2021/05/27 13:31:34;;;;;;;;;;;16.50;68.40;;;;;;5050958;28;19925;-68
2021/05/27 13:34:00;;;;;;;;;;;16.10;68.70;;;;;;5049987;28;19956;-68
2021/05/27 13:36:26;;;;;;;;;;;16.00;69.20;;;;;;5051221;28;19960;-65
2021/05/27 13:38:51;;;;;;;;;;;15.90;70.30;;;;;;5051855;28;19917;-66
2021/05/27 13:41:18;;;;;;;;;;;15.90;70.50;;;;;;5051269;28;20016;-68
2021/05/27 13:43:43;;;;;;;;;;;16.00;70.80;;;;;;5050904;28;20330;-68
2021/05/27 13:46:09;;;;;;;;;;;16.00;70.90;;;;;;5051522;28;19921;-67
2021/05/27 13:48:35;;;;;;;;;;;16.00;70.90;;;;;;5050943;28;20305;-66
2021/05/27 13:51:07;;;;;;;;;;;16.00;70.30;;;;;;5033402;28;19917;-66
2021/05/27 13:53:33;;;;;;;;;;;16.00;70.40;;;;;;5050958;28;19917;-66
2021/05/27 13:56:01;;;;;;;;;;;16.00;70.40;;;;;;5050806;28;20313;-66
2021/05/27 13:58:27;;;;;;;;;;;16.00;70.40;;;;;;5051242;28;19924;-66
2021/05/27 14:00:53;;;;;;;;;;;16.00;70.00;;;;;;5049296;28;20293;-67
2021/05/27 14:03:22;;;;;;;;;;;16.00;70.20;;;;;;5050961;28;20016;-66
2021/05/27 14:05:48;;;;;;;;;;;16.00;70.30;;;;;;5051970;28;19924;-67
2021/05/27 14:08:15;;;;;;;;;;;16.00;70.50;;;;;;5039098;28;19918;-67
2021/05/27 14:10:41;;;;;;;;;;;16.00;70.70;;;;;;5033430;28;19925;-67
2021/05/27 14:13:08;;;;;;;;;;;16.00;70.60;;;;;;5034588;28;20365;-66
2021/05/27 14:15:33;;;;;;;;;;;16.00;70.40;;;;;;5033283;28;19920;-67
2021/05/27 14:17:59;;;;;;;;;;;15.80;70.30;;;;;;5035229;28;20297;-67
2021/05/27 14:20:26;;;;;;;;;;;15.70;70.40;;;;;;5034507;28;19917;-67
2021/05/27 14:22:52;;;;;;;;;;;15.50;70.60;;;;;;5034789;28;20373;-67
2021/05/27 14:25:18;;;;;;;;;;;15.30;70.90;;;;;;5033991;28;19959;-66
2021/05/27 14:27:43;;;;;;;;;;;15.10;71.00;;;;;;5034725;28;19949;-67
2021/05/27 14:30:10;;;;;;;;;;;15.00;71.50;;;;;;5034493;28;19951;-68
2021/05/27 14:32:35;;;;;;;;;;;14.90;72.10;;;;;;5032748;28;19923;-67
2021/05/27 14:35:01;;;;;;;;;;;14.80;72.50;;;;;;5034130;28;19913;-66
2021/05/27 14:37:27;;;;;;;;;;;14.70;73.30;;;;;;5034416;28;19932;-67
2021/05/27 14:39:53;;;;;;;;;;;14.80;73.90;;;;;;5049691;28;20281;-66